Terminal Aerodrome Forecast
Issued by NWS

Home | Current Version | Previous Version | Text Only | Print | Product List | Glossary On
Versions: 1 2 3 4 5 6 7 8 9 10 11 12 13
000
FTUS42 KGSP 181137
TAFHKY
TAF
KHKY 181137Z 1812/1912 20008KT P6SM SCT180 BKN250
     FM181600 21011G19KT P6SM SCT050 BKN120
     FM190200 21012KT P6SM VCSH SCT015 OVC021
     FM190500 26013G20KT 5SM -SHRA SCT008 OVC012
     FM190700 27014G21KT P6SM BKN035 PROB30 1907/1909 4SM -SHRA
      OVC025
     FM191000 29008KT P6SM SCT070=

USA.gov is the U.S. government's official web portal to all federal, state and local government web resources and services.